Time;durP1;ratioP1;P1;durP2;ratioP2;P2;SDS_P1;SDS_P2;PMS_P1;PMS_P2;Temp;Humidity;BMP_temperature;BMP_pressure;BME280_temperature;BME280_humidity;BME280_pressure;Samples;Min_cycle;Max_cycle;Signal;HPM_P1;HPM_P2
2023/06/20 00:01:04;;;;;;;6.85;6.15;;;;;;;;;;5068585;28;43408;-42
2023/06/20 00:03:32;;;;;;;6.38;5.78;;;;;;;;;;5067967;28;40969;-43
2023/06/20 00:06:00;;;;;;;7.90;5.40;;;;;;;;;;5068350;28;41143;-43
2023/06/20 00:08:28;;;;;;;13.55;6.07;;;;;;;;;;5068223;28;40928;-42
2023/06/20 00:10:57;;;;;;;7.35;6.13;;;;;;;;;;5069000;28;43519;-42
2023/06/20 00:13:25;;;;;;;6.80;6.07;;;;;;;;;;5068417;28;44396;-42
2023/06/20 00:15:53;;;;;;;6.70;5.82;;;;;;;;;;5068954;28;40337;-43
2023/06/20 00:18:21;;;;;;;6.38;5.78;;;;;;;;;;5069393;28;44148;-42
2023/06/20 00:20:48;;;;;;;6.30;5.65;;;;;;;;;;5068805;28;44417;-43
2023/06/20 00:23:17;;;;;;;6.38;5.72;;;;;;;;;;5068426;28;41101;-43
2023/06/20 00:25:45;;;;;;;6.85;6.18;;;;;;;;;;5069555;28;42483;-43
2023/06/20 00:28:16;;;;;;;6.57;5.97;;;;;;;;;;5068715;28;43216;-42
2023/06/20 00:30:44;;;;;;;6.68;5.45;;;;;;;;;;5067477;28;42472;-43
2023/06/20 00:33:12;;;;;;;6.30;5.70;;;;;;;;;;5068696;28;44301;-43
2023/06/20 00:35:40;;;;;;;6.93;5.57;;;;;;;;;;5067853;28;40142;-42
2023/06/20 00:38:08;;;;;;;7.30;5.80;;;;;;;;;;5067380;28;41205;-43
2023/06/20 00:40:36;;;;;;;6.38;5.70;;;;;;;;;;5067911;28;43155;-43
2023/06/20 00:43:04;;;;;;;6.22;5.60;;;;;;;;;;5067845;28;40317;-42
2023/06/20 00:45:33;;;;;;;6.85;5.25;;;;;;;;;;5066461;28;40809;-43
2023/06/20 00:48:02;;;;;;;7.07;5.55;;;;;;;;;;5068794;28;43236;-43
2023/06/20 00:50:30;;;;;;;6.03;5.43;;;;;;;;;;5065822;28;39602;-42
2023/06/20 00:52:59;;;;;;;5.78;5.18;;;;;;;;;;5067631;28;44399;-42
2023/06/20 00:55:28;;;;;;;6.43;5.82;;;;;;;;;;5068091;28;41726;-43
2023/06/20 00:57:57;;;;;;;6.15;5.55;;;;;;;;;;5067835;28;43679;-43
2023/06/20 01:00:26;;;;;;;6.47;5.85;;;;;;;;;;5066339;28;41621;-42
2023/06/20 01:02:55;;;;;;;6.65;6.00;;;;;;;;;;5068669;28;41150;-42
2023/06/20 01:05:27;;;;;;;5.97;4.90;;;;;;;;;;5067524;28;42999;-42
2023/06/20 01:07:58;;;;;;;7.13;5.90;;;;;;;;;;5066638;28;41927;-43
2023/06/20 01:10:26;;;;;;;6.25;5.55;;;;;;;;;;5064410;28;40045;-42
2023/06/20 01:12:55;;;;;;;6.13;5.53;;;;;;;;;;5069418;28;42919;-42
2023/06/20 01:15:25;;;;;;;6.07;5.47;;;;;;;;;;5066160;28;38779;-43
2023/06/20 01:17:54;;;;;;;6.93;5.45;;;;;;;;;;5067192;28;42207;-43
2023/06/20 01:20:25;;;;;;;6.28;5.68;;;;;;;;;;5067578;28;44011;-37
2023/06/20 01:22:57;;;;;;;6.22;5.60;;;;;;;;;;5068388;28;39680;-39
2023/06/20 01:25:27;;;;;;;6.28;5.68;;;;;;;;;;5065922;28;41525;-39
2023/06/20 01:27:57;;;;;;;6.10;5.50;;;;;;;;;;5067712;28;44114;-40
2023/06/20 01:30:26;;;;;;;6.13;5.13;;;;;;;;;;5067182;28;39719;-36
2023/06/20 01:32:55;;;;;;;5.75;5.13;;;;;;;;;;5067330;28;43276;-36
2023/06/20 01:35:25;;;;;;;6.85;5.63;;;;;;;;;;5067650;28;32463;-39
2023/06/20 01:37:55;;;;;;;5.88;5.32;;;;;;;;;;5066291;28;41959;-38
2023/06/20 01:40:24;;;;;;;6.82;6.13;;;;;;;;;;5077665;28;43145;-40
2023/06/20 01:42:52;;;;;;;6.38;5.78;;;;;;;;;;5067840;28;40149;-40
2023/06/20 01:45:20;;;;;;;5.72;5.15;;;;;;;;;;5065823;28;42422;-39
2023/06/20 01:47:48;;;;;;;7.05;5.57;;;;;;;;;;5067337;28;43071;-38
2023/06/20 01:50:16;;;;;;;6.10;5.50;;;;;;;;;;5067063;28;40056;-38
2023/06/20 01:52:44;;;;;;;6.40;5.60;;;;;;;;;;5065669;28;41232;-37
2023/06/20 01:55:12;;;;;;;6.43;5.45;;;;;;;;;;5067984;28;44154;-37
2023/06/20 01:57:42;;;;;;;7.10;5.20;;;;;;;;;;5055601;28;43660;-39
2023/06/20 02:00:11;;;;;;;5.93;5.30;;;;;;;;;;5064845;28;43230;-40
2023/06/20 02:02:44;;;;;;;7.55;5.70;;;;;;;;;;5065878;28;40169;-37
2023/06/20 02:05:11;;;;;;;7.38;5.55;;;;;;;;;;5067690;28;42467;-38
2023/06/20 02:07:41;;;;;;;6.40;5.53;;;;;;;;;;5066355;28;44586;-37
2023/06/20 02:10:09;;;;;;;5.95;5.22;;;;;;;;;;5065958;28;39276;-40
2023/06/20 02:12:37;;;;;;;6.13;5.53;;;;;;;;;;5067417;28;43035;-36
2023/06/20 02:15:07;;;;;;;5.80;5.20;;;;;;;;;;5067092;28;43910;-40
2023/06/20 02:17:35;;;;;;;6.03;4.97;;;;;;;;;;5067526;28;40888;-38
2023/06/20 02:20:04;;;;;;;6.28;5.63;;;;;;;;;;5067702;28;43472;-40
2023/06/20 02:22:33;;;;;;;6.10;5.50;;;;;;;;;;5065996;28;41444;-37
2023/06/20 02:25:07;;;;;;;5.85;5.32;;;;;;;;;;5067287;28;43609;-38
2023/06/20 02:27:35;;;;;;;6.15;5.55;;;;;;;;;;5065513;28;42766;-38
2023/06/20 02:30:03;;;;;;;6.30;5.70;;;;;;;;;;5067272;28;39837;-39
2023/06/20 02:32:33;;;;;;;6.00;5.40;;;;;;;;;;5066453;28;42661;-38
2023/06/20 02:35:01;;;;;;;6.43;5.70;;;;;;;;;;5064229;28;43729;-40
2023/06/20 02:37:29;;;;;;;6.10;5.50;;;;;;;;;;5065564;28;40106;-37
2023/06/20 02:39:57;;;;;;;5.65;5.15;;;;;;;;;;5064091;28;42864;-37
2023/06/20 02:42:25;;;;;;;6.15;5.53;;;;;;;;;;5065872;28;40109;-37
2023/06/20 02:44:53;;;;;;;6.30;5.57;;;;;;;;;;5066151;28;42576;-37
2023/06/20 02:47:22;;;;;;;6.15;5.55;;;;;;;;;;5066291;28;43459;-40
2023/06/20 02:49:54;;;;;;;5.50;5.00;;;;;;;;;;5066509;28;40111;-40
2023/06/20 02:52:22;;;;;;;6.70;5.57;;;;;;;;;;5063216;28;42549;-38
2023/06/20 02:54:56;;;;;;;6.70;5.40;;;;;;;;;;5065777;28;43168;-35
2023/06/20 02:57:25;;;;;;;6.32;5.72;;;;;;;;;;5064076;28;38989;-40
2023/06/20 02:59:55;;;;;;;6.00;5.45;;;;;;;;;;5051518;28;42168;-38
2023/06/20 03:02:23;;;;;;;6.45;5.85;;;;;;;;;;5064254;28;42755;-39
2023/06/20 03:04:56;;;;;;;6.20;5.60;;;;;;;;;;5064390;28;41447;-39
2023/06/20 03:07:25;;;;;;;7.35;5.82;;;;;;;;;;5065121;28;42751;-36
2023/06/20 03:09:54;;;;;;;6.10;5.50;;;;;;;;;;5066111;28;40101;-37
2023/06/20 03:12:21;;;;;;;6.25;5.63;;;;;;;;;;5066375;28;43199;-38
2023/06/20 03:14:49;;;;;;;6.05;5.55;;;;;;;;;;5066651;28;44421;-35
2023/06/20 03:17:18;;;;;;;6.40;5.80;;;;;;;;;;5064283;28;38783;-36
2023/06/20 03:19:46;;;;;;;6.05;5.43;;;;;;;;;;5064848;28;41127;-38
2023/06/20 03:22:19;;;;;;;6.15;5.55;;;;;;;;;;5063829;28;42076;-37
2023/06/20 03:24:49;;;;;;;6.50;5.80;;;;;;;;;;5066461;28;41571;-38
2023/06/20 03:27:17;;;;;;;6.75;6.15;;;;;;;;;;5066178;28;44259;-39
2023/06/20 03:29:45;;;;;;;6.13;5.55;;;;;;;;;;5066462;28;40634;-36
2023/06/20 03:32:13;;;;;;;6.88;6.00;;;;;;;;;;5063663;28;41211;-40
2023/06/20 03:34:41;;;;;;;6.90;6.13;;;;;;;;;;5064758;28;42566;-38
2023/06/20 03:37:08;;;;;;;6.38;5.78;;;;;;;;;;5066598;28;39584;-38
2023/06/20 03:39:38;;;;;;;6.05;5.55;;;;;;;;;;5063899;28;42285;-38
2023/06/20 03:42:06;;;;;;;6.85;6.15;;;;;;;;;;5064140;28;41969;-37
2023/06/20 03:44:35;;;;;;;6.75;6.07;;;;;;;;;;5063874;28;39467;-40
2023/06/20 03:47:04;;;;;;;6.80;6.03;;;;;;;;;;5063445;28;42813;-40
2023/06/20 03:49:32;;;;;;;7.30;6.47;;;;;;;;;;5064270;28;39971;-40
2023/06/20 03:52:00;;;;;;;7.40;5.65;;;;;;;;;;5064602;28;41502;-40
2023/06/20 03:54:28;;;;;;;6.25;5.65;;;;;;;;;;5063282;28;42043;-41
2023/06/20 03:56:57;;;;;;;6.20;5.60;;;;;;;;;;5064351;28;39154;-39
2023/06/20 03:59:25;;;;;;;6.30;5.72;;;;;;;;;;5062901;28;42508;-44
2023/06/20 04:01:53;;;;;;;6.80;6.03;;;;;;;;;;5064295;28;41655;-44
2023/06/20 04:04:22;;;;;;;6.55;5.95;;;;;;;;;;5063960;28;39139;-44
2023/06/20 04:06:50;;;;;;;6.53;5.93;;;;;;;;;;5065667;28;42614;-46
2023/06/20 04:09:18;;;;;;;6.80;6.10;;;;;;;;;;5065342;28;40331;-44
2023/06/20 04:11:46;;;;;;;6.95;6.25;;;;;;;;;;5066118;28;42641;-44
2023/06/20 04:14:15;;;;;;;6.78;6.05;;;;;;;;;;5068380;28;43513;-44
2023/06/20 04:16:43;;;;;;;8.25;6.43;;;;;;;;;;5067832;28;38472;-44
2023/06/20 04:19:11;;;;;;;12.60;6.50;;;;;;;;;;5069270;28;42791;-44
2023/06/20 04:21:39;;;;;;;11.85;6.53;;;;;;;;;;5068742;28;44201;-44
2023/06/20 04:24:08;;;;;;;9.77;7.32;;;;;;;;;;5069223;28;40348;-44
2023/06/20 04:26:36;;;;;;;10.60;6.65;;;;;;;;;;5068918;28;42282;-44
2023/06/20 04:29:04;;;;;;;10.20;6.68;;;;;;;;;;5067153;28;43306;-44
2023/06/20 04:31:35;;;;;;;9.43;6.38;;;;;;;;;;5066782;28;41201;-44
2023/06/20 04:34:03;;;;;;;9.65;6.82;;;;;;;;;;5066899;28;41629;-44
2023/06/20 04:36:34;;;;;;;9.40;6.63;;;;;;;;;;5066117;28;40248;-44
2023/06/20 04:39:06;;;;;;;9.20;6.95;;;;;;;;;;5078633;28;42332;-44
2023/06/20 04:41:35;;;;;;;12.48;7.30;;;;;;;;;;5055888;28;42188;-44
2023/06/20 04:44:03;;;;;;;11.10;6.75;;;;;;;;;;5068119;28;40450;-44
2023/06/20 04:46:31;;;;;;;9.25;6.63;;;;;;;;;;5066463;28;40997;-44
2023/06/20 04:49:00;;;;;;;10.75;7.20;;;;;;;;;;5066446;28;43731;-44
2023/06/20 04:51:28;;;;;;;12.23;6.60;;;;;;;;;;5066975;28;40294;-44
2023/06/20 04:53:56;;;;;;;7.10;6.38;;;;;;;;;;5068779;28;43294;-44
2023/06/20 04:56:24;;;;;;;8.82;7.20;;;;;;;;;;5065491;28;38796;-44
2023/06/20 04:58:52;;;;;;;8.13;6.60;;;;;;;;;;5068810;28;42454;-44
2023/06/20 05:01:20;;;;;;;9.57;7.30;;;;;;;;;;5057648;28;42574;-44
2023/06/20 05:03:48;;;;;;;11.20;7.07;;;;;;;;;;5068006;28;40946;-44
2023/06/20 05:06:18;;;;;;;9.70;6.38;;;;;;;;;;5066458;28;42345;-44
2023/06/20 05:08:47;;;;;;;10.18;6.72;;;;;;;;;;5066985;28;42575;-44
2023/06/20 05:11:15;;;;;;;8.10;7.00;;;;;;;;;;5066185;28;39227;-44
2023/06/20 05:13:43;;;;;;;9.63;7.70;;;;;;;;;;5068436;28;43830;-44
2023/06/20 05:16:11;;;;;;;7.57;6.88;;;;;;;;;;5068459;28;40910;-44
2023/06/20 05:18:39;;;;;;;8.98;6.45;;;;;;;;;;5067245;28;42711;-44
2023/06/20 05:21:10;;;;;;;7.78;6.97;;;;;;;;;;5065179;28;43564;-44
2023/06/20 05:23:40;;;;;;;11.00;7.03;;;;;;;;;;5065892;28;40441;-44
2023/06/20 05:26:08;;;;;;;9.63;7.40;;;;;;;;;;5068175;28;42136;-44
2023/06/20 05:28:35;;;;;;;11.80;7.32;;;;;;;;;;5067635;28;43599;-44
2023/06/20 05:31:03;;;;;;;8.02;7.28;;;;;;;;;;5067442;28;39967;-44
2023/06/20 05:33:31;;;;;;;8.20;7.45;;;;;;;;;;5067793;28;43169;-44
2023/06/20 05:35:59;;;;;;;8.48;6.93;;;;;;;;;;5068357;28;43958;-44
2023/06/20 05:38:31;;;;;;;8.88;7.45;;;;;;;;;;5064623;28;42302;-44
2023/06/20 05:41:00;;;;;;;8.50;7.65;;;;;;;;;;5065256;28;43020;-44
2023/06/20 05:43:29;;;;;;;10.10;7.63;;;;;;;;;;5067022;28;41462;-44
2023/06/20 05:45:57;;;;;;;9.20;7.32;;;;;;;;;;5064778;28;43384;-44
2023/06/20 05:48:25;;;;;;;8.45;7.55;;;;;;;;;;5067837;28;44153;-44
2023/06/20 05:50:53;;;;;;;8.13;7.32;;;;;;;;;;5067730;28;40078;-45
2023/06/20 05:53:23;;;;;;;7.97;7.18;;;;;;;;;;5066658;28;42818;-45
2023/06/20 05:55:51;;;;;;;7.60;6.90;;;;;;;;;;5068164;28;44366;-45
2023/06/20 05:58:20;;;;;;;7.85;7.05;;;;;;;;;;5067748;28;42215;-44
2023/06/20 06:00:49;;;;;;;9.77;7.18;;;;;;;;;;5067082;28;44223;-45
2023/06/20 06:03:18;;;;;;;8.75;7.72;;;;;;;;;;5067706;28;40302;-45
2023/06/20 06:05:47;;;;;;;9.60;7.30;;;;;;;;;;5067131;28;43794;-45
2023/06/20 06:08:15;;;;;;;7.65;6.95;;;;;;;;;;5068082;28;42896;-44
2023/06/20 06:10:43;;;;;;;8.27;7.57;;;;;;;;;;5067831;28;40098;-45
2023/06/20 06:13:11;;;;;;;10.02;7.43;;;;;;;;;;5066951;28;42360;-45
2023/06/20 06:15:40;;;;;;;8.52;7.25;;;;;;;;;;5066487;28;43935;-44
2023/06/20 06:18:25;;;;;;;8.65;7.85;;;;;;;;;;5064411;28;40900;-45
2023/06/20 06:20:53;;;;;;;8.27;7.20;;;;;;;;;;5066752;28;43261;-45
2023/06/20 06:23:21;;;;;;;7.65;6.95;;;;;;;;;;5066963;28;41389;-45
2023/06/20 06:25:49;;;;;;;7.90;7.10;;;;;;;;;;5067887;28;43125;-45
2023/06/20 06:28:17;;;;;;;8.27;7.38;;;;;;;;;;5066417;28;43578;-45
2023/06/20 06:30:46;;;;;;;7.40;6.70;;;;;;;;;;5067549;28;40135;-45
2023/06/20 06:33:14;;;;;;;8.35;7.25;;;;;;;;;;5067221;28;43247;-45
2023/06/20 06:35:42;;;;;;;8.50;7.60;;;;;;;;;;5066733;28;44272;-45
2023/06/20 06:38:10;;;;;;;8.85;7.85;;;;;;;;;;5067270;28;40410;-45
2023/06/20 06:40:38;;;;;;;7.72;7.03;;;;;;;;;;5066989;28;42633;-45
2023/06/20 06:43:06;;;;;;;8.65;7.85;;;;;;;;;;5066013;28;41024;-44
2023/06/20 06:45:36;;;;;;;7.85;7.13;;;;;;;;;;5064957;28;41214;-44
2023/06/20 06:48:05;;;;;;;8.65;7.25;;;;;;;;;;5066988;28;43273;-44
2023/06/20 06:50:34;;;;;;;8.07;7.28;;;;;;;;;;5066666;28;40538;-44
2023/06/20 06:53:02;;;;;;;8.88;7.53;;;;;;;;;;5067069;28;42326;-44
2023/06/20 06:55:29;;;;;;;8.63;7.57;;;;;;;;;;5065735;28;43111;-44
2023/06/20 06:57:58;;;;;;;8.00;7.20;;;;;;;;;;5067236;28;40003;-44
2023/06/20 07:00:26;;;;;;;7.85;7.15;;;;;;;;;;5066184;28;42553;-44
2023/06/20 07:02:54;;;;;;;8.40;7.65;;;;;;;;;;5066200;28;43812;-44
2023/06/20 07:05:23;;;;;;;7.97;7.25;;;;;;;;;;5066326;28;43343;-44
2023/06/20 07:07:51;;;;;;;8.23;7.47;;;;;;;;;;5066431;28;43968;-44
2023/06/20 07:10:19;;;;;;;8.75;7.88;;;;;;;;;;5065532;28;40886;-44
2023/06/20 07:12:47;;;;;;;7.80;7.10;;;;;;;;;;5066682;28;42862;-44
2023/06/20 07:15:15;;;;;;;11.02;7.63;;;;;;;;;;5066674;28;43473;-44
2023/06/20 07:17:43;;;;;;;7.88;7.18;;;;;;;;;;5065947;28;41541;-44
2023/06/20 07:20:12;;;;;;;9.32;7.93;;;;;;;;;;5066905;28;43233;-45
2023/06/20 07:22:41;;;;;;;8.88;7.97;;;;;;;;;;5066073;28;44441;-44
2023/06/20 07:25:09;;;;;;;8.70;7.82;;;;;;;;;;5052880;28;39993;-44
2023/06/20 07:27:37;;;;;;;7.95;7.22;;;;;;;;;;5066059;28;43322;-44
2023/06/20 07:30:05;;;;;;;8.02;7.22;;;;;;;;;;5066187;28;41289;-44
2023/06/20 07:32:33;;;;;;;7.50;6.80;;;;;;;;;;5066138;28;43664;-44
2023/06/20 07:35:01;;;;;;;9.13;7.18;;;;;;;;;;5066205;28;44183;-44
2023/06/20 07:37:29;;;;;;;9.25;7.32;;;;;;;;;;5065427;28;41388;-44
2023/06/20 07:39:58;;;;;;;7.93;7.22;;;;;;;;;;5064185;28;42595;-45
2023/06/20 07:42:26;;;;;;;8.43;7.43;;;;;;;;;;5054387;28;43231;-44
2023/06/20 07:44:54;;;;;;;8.00;7.20;;;;;;;;;;5065844;28;40336;-44
2023/06/20 07:47:22;;;;;;;8.13;7.07;;;;;;;;;;5067046;28;42880;-45
2023/06/20 07:49:50;;;;;;;8.07;7.28;;;;;;;;;;5070071;28;40993;-44
2023/06/20 07:52:18;;;;;;;8.32;7.40;;;;;;;;;;5068641;28;42556;-44
2023/06/20 07:54:46;;;;;;;7.95;7.20;;;;;;;;;;5069327;28;43387;-43
2023/06/20 07:57:15;;;;;;;9.05;7.90;;;;;;;;;;5067921;28;39949;-43
2023/06/20 07:59:43;;;;;;;7.65;6.95;;;;;;;;;;5069269;28;42852;-42
2023/06/20 08:02:11;;;;;;;7.43;6.72;;;;;;;;;;5068013;28;42479;-42
2023/06/20 08:04:39;;;;;;;8.02;7.15;;;;;;;;;;5069493;28;40935;-42
2023/06/20 08:07:07;;;;;;;8.15;7.45;;;;;;;;;;5067271;28;40913;-42
2023/06/20 08:09:35;;;;;;;8.07;7.28;;;;;;;;;;5069210;28;40096;-43
2023/06/20 08:12:03;;;;;;;8.02;7.32;;;;;;;;;;5069508;28;43316;-43
2023/06/20 08:14:32;;;;;;;8.40;7.15;;;;;;;;;;5068728;28;43214;-43
2023/06/20 08:17:00;;;;;;;8.27;7.43;;;;;;;;;;5069532;28;40342;-42
2023/06/20 08:19:28;;;;;;;7.93;7.13;;;;;;;;;;5068140;28;43617;-43
2023/06/20 08:21:56;;;;;;;7.72;7.03;;;;;;;;;;5070074;28;44614;-42
2023/06/20 08:24:24;;;;;;;9.27;6.72;;;;;;;;;;5068879;28;40785;-42
2023/06/20 08:26:52;;;;;;;7.72;6.93;;;;;;;;;;5068894;28;42329;-43
2023/06/20 08:29:20;;;;;;;7.05;6.40;;;;;;;;;;5068671;28;42813;-37
2023/06/20 08:31:49;;;;;;;7.50;6.75;;;;;;;;;;5083767;28;44181;-37
2023/06/20 08:34:17;;;;;;;10.52;7.07;;;;;;;;;;5067991;28;44833;-35
2023/06/20 08:36:45;;;;;;;7.53;6.82;;;;;;;;;;5069547;28;40103;-32
2023/06/20 08:39:13;;;;;;;7.22;6.57;;;;;;;;;;5069368;28;41798;-34
2023/06/20 08:41:41;;;;;;;7.28;6.55;;;;;;;;;;5067789;28;43368;-32
2023/06/20 08:44:09;;;;;;;7.05;6.40;;;;;;;;;;5068243;28;41125;-32
2023/06/20 08:46:37;;;;;;;7.05;6.45;;;;;;;;;;5068189;28;43526;-33
2023/06/20 08:49:07;;;;;;;8.48;6.38;;;;;;;;;;5068351;28;44368;-34
2023/06/20 08:51:36;;;;;;;7.85;6.38;;;;;;;;;;5068961;28;39488;-34
2023/06/20 08:54:04;;;;;;;6.72;6.07;;;;;;;;;;5068541;28;43187;-35
2023/06/20 08:56:32;;;;;;;6.30;5.70;;;;;;;;;;5067993;28;40359;-37
2023/06/20 08:59:00;;;;;;;6.60;6.00;;;;;;;;;;5067282;28;42497;-33
2023/06/20 09:01:28;;;;;;;8.15;6.63;;;;;;;;;;5068620;28;43388;-35
2023/06/20 09:04:00;;;;;;;6.70;6.10;;;;;;;;;;5068485;28;41351;-32
2023/06/20 09:06:37;;;;;;;7.10;6.40;;;;;;;;;;5065744;28;42926;-32
2023/06/20 09:09:05;;;;;;;6.65;5.88;;;;;;;;;;5065485;28;44723;-34
2023/06/20 09:11:34;;;;;;;6.57;5.90;;;;;;;;;;5068129;28;42510;-36
2023/06/20 09:14:02;;;;;;;6.38;5.75;;;;;;;;;;5068314;28;42574;-36
2023/06/20 09:16:30;;;;;;;8.88;6.05;;;;;;;;;;5067355;28;41932;-36
2023/06/20 09:18:58;;;;;;;6.55;5.95;;;;;;;;;;5068637;28;43182;-32
2023/06/20 09:21:26;;;;;;;6.20;5.60;;;;;;;;;;5068079;28;43470;-35
2023/06/20 09:24:07;;;;;;;11.02;5.88;;;;;;;;;;5067363;28;41387;-35
2023/06/20 09:26:35;;;;;;;5.90;5.30;;;;;;;;;;5066576;28;43270;-37
2023/06/20 09:29:06;;;;;;;6.38;5.78;;;;;;;;;;5068358;28;44392;-37
2023/06/20 09:31:41;;;;;;;6.85;6.15;;;;;;;;;;5064004;28;40317;-32
2023/06/20 09:34:12;;;;;;;6.43;5.57;;;;;;;;;;5067813;28;42730;-36
2023/06/20 09:36:43;;;;;;;6.15;5.55;;;;;;;;;;5064966;28;42992;-35
2023/06/20 09:39:15;;;;;;;6.47;5.90;;;;;;;;;;5065630;28;43678;-37
2023/06/20 09:41:46;;;;;;;6.40;5.80;;;;;;;;;;5083214;28;42590;-33
2023/06/20 09:44:14;;;;;;;6.43;5.82;;;;;;;;;;5066610;28;41339;-35
2023/06/20 09:46:42;;;;;;;6.47;5.88;;;;;;;;;;5068153;28;42526;-36
2023/06/20 09:49:11;;;;;;;5.88;5.35;;;;;;;;;;5067987;28;43605;-35
2023/06/20 09:51:41;;;;;;;6.75;6.15;;;;;;;;;;5066462;28;41269;-35
2023/06/20 09:54:12;;;;;;;6.15;5.63;;;;;;;;;;5067695;28;42692;-34
2023/06/20 09:56:43;;;;;;;7.60;6.03;;;;;;;;;;5067258;28;43395;-38
2023/06/20 09:59:11;;;;;;;5.97;5.28;;;;;;;;;;5067314;28;40145;-35
2023/06/20 10:01:39;;;;;;;6.10;5.55;;;;;;;;;;5067217;28;43608;-34
2023/06/20 10:04:07;;;;;;;6.50;5.80;;;;;;;;;;5067429;28;40056;-34
2023/06/20 10:06:37;;;;;;;6.20;5.60;;;;;;;;;;5066405;28;42053;-33
2023/06/20 10:09:05;;;;;;;5.90;5.30;;;;;;;;;;5067023;28;43629;-37
2023/06/20 10:11:33;;;;;;;6.10;5.50;;;;;;;;;;5066762;28;39812;-34
2023/06/20 10:14:03;;;;;;;5.65;5.07;;;;;;;;;;5067186;28;42329;-35
2023/06/20 10:16:31;;;;;;;5.85;5.35;;;;;;;;;;5066909;28;43112;-32
2023/06/20 10:18:59;;;;;;;5.97;5.30;;;;;;;;;;5067282;28;40299;-33
2023/06/20 10:21:42;;;;;;;5.55;5.05;;;;;;;;;;5066737;28;43406;-35
2023/06/20 10:24:11;;;;;;;5.88;5.38;;;;;;;;;;5064241;28;40307;-34
2023/06/20 10:26:39;;;;;;;6.70;5.72;;;;;;;;;;5065986;28;42361;-35
2023/06/20 10:29:09;;;;;;;5.97;5.47;;;;;;;;;;5067011;28;42806;-35
2023/06/20 10:31:51;;;;;;;6.78;6.15;;;;;;;;;;5066624;28;40628;-34
2023/06/20 10:34:28;;;;;;;6.25;5.38;;;;;;;;;;5063242;28;42745;-36
2023/06/20 10:37:08;;;;;;;6.18;5.40;;;;;;;;;;5064069;28;43023;-33
2023/06/20 10:39:36;;;;;;;6.28;5.70;;;;;;;;;;5063695;28;40934;-33
2023/06/20 10:42:07;;;;;;;6.47;5.82;;;;;;;;;;5068048;28;42012;-37
2023/06/20 10:44:36;;;;;;;5.55;5.05;;;;;;;;;;5065304;28;40429;-37
2023/06/20 10:47:04;;;;;;;6.35;5.75;;;;;;;;;;5066687;28;42390;-32
2023/06/20 10:49:33;;;;;;;5.90;5.30;;;;;;;;;;5067324;28;20329;-35
2023/06/20 10:52:01;;;;;;;6.05;4.95;;;;;;;;;;5067225;28;42258;-34
2023/06/20 10:54:33;;;;;;;5.80;5.30;;;;;;;;;;5065980;28;42709;-35
2023/06/20 10:57:00;;;;;;;5.95;5.30;;;;;;;;;;5064125;28;43304;-32
2023/06/20 10:59:28;;;;;;;6.10;5.60;;;;;;;;;;5066177;28;40718;-34
2023/06/20 11:01:58;;;;;;;6.03;5.53;;;;;;;;;;5066261;28;42817;-35
2023/06/20 11:04:26;;;;;;;6.90;5.53;;;;;;;;;;5066045;28;43682;-33
2023/06/20 11:06:54;;;;;;;5.40;4.85;;;;;;;;;;5067002;28;43824;-35
2023/06/20 11:09:22;;;;;;;5.53;5.03;;;;;;;;;;5065029;28;44346;-33
2023/06/20 11:11:50;;;;;;;6.35;5.72;;;;;;;;;;5066386;28;40252;-34
2023/06/20 11:14:19;;;;;;;6.53;5.28;;;;;;;;;;5065494;28;43589;-35
2023/06/20 11:16:47;;;;;;;6.78;6.07;;;;;;;;;;5064402;28;41985;-34
2023/06/20 11:19:17;;;;;;;6.05;5.53;;;;;;;;;;5066874;28;40322;-36
2023/06/20 11:22:03;;;;;;;6.43;5.40;;;;;;;;;;5062549;28;42125;-37
2023/06/20 11:24:32;;;;;;;6.55;5.47;;;;;;;;;;5065072;28;42999;-35
2023/06/20 11:27:10;;;;;;;5.95;5.45;;;;;;;;;;5067269;28;40860;-37
2023/06/20 11:29:38;;;;;;;6.53;5.93;;;;;;;;;;5062003;28;43353;-33
2023/06/20 11:32:10;;;;;;;6.28;5.78;;;;;;;;;;5066647;28;40353;-36
2023/06/20 11:34:56;;;;;;;6.07;5.50;;;;;;;;;;5065700;28;42629;-34
2023/06/20 11:37:24;;;;;;;5.68;5.18;;;;;;;;;;5062439;28;43297;-33
2023/06/20 11:39:52;;;;;;;6.63;6.03;;;;;;;;;;5066148;28;40139;-37
2023/06/20 11:42:20;;;;;;;6.10;5.60;;;;;;;;;;5066464;28;44103;-36
2023/06/20 11:44:47;;;;;;;5.97;5.45;;;;;;;;;;5064984;28;44087;-36
2023/06/20 11:47:15;;;;;;;6.45;5.82;;;;;;;;;;5066088;28;40212;-38
2023/06/20 11:49:43;;;;;;;6.95;5.65;;;;;;;;;;5067202;28;43202;-33
2023/06/20 11:52:13;;;;;;;5.72;5.22;;;;;;;;;;5065720;28;40257;-35
2023/06/20 11:54:47;;;;;;;6.35;5.80;;;;;;;;;;5065536;28;42708;-36
2023/06/20 11:57:22;;;;;;;6.80;6.18;;;;;;;;;;5063149;28;42878;-35
2023/06/20 11:59:53;;;;;;;6.32;5.68;;;;;;;;;;5062997;28;40331;-38
2023/06/20 12:02:21;;;;;;;6.10;5.40;;;;;;;;;;5065910;28;43185;-36
2023/06/20 12:04:56;;;;;;;6.13;5.53;;;;;;;;;;5065567;28;43162;-35
2023/06/20 12:07:26;;;;;;;5.95;5.45;;;;;;;;;;5062221;28;42217;-37
2023/06/20 12:09:54;;;;;;;6.07;5.57;;;;;;;;;;5062888;28;42342;-34
2023/06/20 12:12:29;;;;;;;5.75;5.25;;;;;;;;;;5065424;28;33232;-34
2023/06/20 12:14:57;;;;;;;6.35;5.55;;;;;;;;;;5049152;28;42657;-33
2023/06/20 12:17:25;;;;;;;6.05;5.50;;;;;;;;;;5065478;28;43441;-35
2023/06/20 12:19:53;;;;;;;5.93;5.43;;;;;;;;;;5065213;28;40416;-38
2023/06/20 12:22:21;;;;;;;6.43;5.72;;;;;;;;;;5065876;28;42834;-34
2023/06/20 12:24:51;;;;;;;5.88;5.38;;;;;;;;;;5065223;28;43990;-34
2023/06/20 12:27:19;;;;;;;5.55;5.07;;;;;;;;;;5064348;28;40310;-37
2023/06/20 12:29:46;;;;;;;5.95;5.43;;;;;;;;;;5063655;28;42814;-35
2023/06/20 12:32:14;;;;;;;5.97;5.38;;;;;;;;;;5066514;28;43538;-35
2023/06/20 12:34:42;;;;;;;6.78;5.38;;;;;;;;;;5067791;28;42718;-36
2023/06/20 12:37:11;;;;;;;5.53;5.03;;;;;;;;;;5069568;28;43450;-35
2023/06/20 12:39:41;;;;;;;5.90;5.40;;;;;;;;;;5068021;28;40321;-35
2023/06/20 12:42:12;;;;;;;5.78;5.28;;;;;;;;;;5069341;28;42929;-37
2023/06/20 12:44:40;;;;;;;5.70;5.20;;;;;;;;;;5066674;28;43440;-34
2023/06/20 12:47:09;;;;;;;5.78;5.28;;;;;;;;;;5068393;28;40874;-35
2023/06/20 12:49:37;;;;;;;5.82;5.32;;;;;;;;;;5068342;28;42700;-39
2023/06/20 12:52:08;;;;;;;5.80;5.30;;;;;;;;;;5068807;28;44343;-44
2023/06/20 12:54:36;;;;;;;5.57;5.07;;;;;;;;;;5067924;28;41745;-44
2023/06/20 12:57:04;;;;;;;5.70;5.20;;;;;;;;;;5069036;28;43569;-44
2023/06/20 12:59:33;;;;;;;5.82;5.32;;;;;;;;;;5068662;28;40064;-44
2023/06/20 13:02:01;;;;;;;5.72;5.22;;;;;;;;;;5068062;28;42421;-44
2023/06/20 13:04:29;;;;;;;5.75;5.25;;;;;;;;;;5068121;28;44725;-44
2023/06/20 13:06:59;;;;;;;6.30;5.40;;;;;;;;;;5068333;28;41083;-44
2023/06/20 13:09:27;;;;;;;5.72;5.22;;;;;;;;;;5067419;28;42484;-44
2023/06/20 13:11:56;;;;;;;6.07;5.47;;;;;;;;;;5068332;28;43315;-45
2023/06/20 13:14:24;;;;;;;5.78;5.28;;;;;;;;;;5067794;28;40962;-44
2023/06/20 13:16:53;;;;;;;5.90;5.40;;;;;;;;;;5068224;28;44116;-44
2023/06/20 13:19:21;;;;;;;6.20;5.60;;;;;;;;;;5067595;28;40244;-44
2023/06/20 13:21:49;;;;;;;5.80;5.30;;;;;;;;;;5067724;28;43131;-44
2023/06/20 13:24:17;;;;;;;5.50;5.00;;;;;;;;;;5066202;28;41911;-44
2023/06/20 13:26:45;;;;;;;5.35;4.85;;;;;;;;;;5068173;28;40398;-44
2023/06/20 13:29:13;;;;;;;5.07;4.68;;;;;;;;;;5068123;28;42662;-44
2023/06/20 13:31:41;;;;;;;6.40;5.18;;;;;;;;;;5067580;28;43196;-44
2023/06/20 13:34:11;;;;;;;5.18;4.68;;;;;;;;;;5068269;28;41095;-44
2023/06/20 13:36:39;;;;;;;5.88;5.38;;;;;;;;;;5067046;28;42296;-44
2023/06/20 13:39:07;;;;;;;5.53;4.97;;;;;;;;;;5068744;28;43297;-44
2023/06/20 13:41:34;;;;;;;5.55;5.00;;;;;;;;;;5067510;28;42564;-44
2023/06/20 13:44:02;;;;;;;5.75;5.25;;;;;;;;;;5066716;28;44375;-44
2023/06/20 13:46:30;;;;;;;5.10;4.70;;;;;;;;;;5066763;28;41930;-44
2023/06/20 13:48:58;;;;;;;5.40;4.90;;;;;;;;;;5067875;28;43315;-44
2023/06/20 13:51:27;;;;;;;5.03;4.63;;;;;;;;;;5066401;28;43392;-44
2023/06/20 13:53:56;;;;;;;5.22;4.72;;;;;;;;;;5067514;28;40381;-44
2023/06/20 13:56:24;;;;;;;5.40;4.90;;;;;;;;;;5067317;28;42841;-44
2023/06/20 13:58:52;;;;;;;5.38;4.88;;;;;;;;;;5066789;28;44500;-44
2023/06/20 14:01:19;;;;;;;5.40;5.00;;;;;;;;;;5067583;28;40180;-44
2023/06/20 14:03:48;;;;;;;6.13;4.93;;;;;;;;;;5067611;28;43614;-44
2023/06/20 14:06:16;;;;;;;5.10;4.70;;;;;;;;;;5067401;28;41283;-44
2023/06/20 14:08:46;;;;;;;5.53;5.03;;;;;;;;;;5067960;28;42854;-44
2023/06/20 14:11:14;;;;;;;5.18;4.78;;;;;;;;;;5064315;28;43319;-44
2023/06/20 14:13:42;;;;;;;5.53;4.82;;;;;;;;;;5067758;28;41314;-44
2023/06/20 14:16:10;;;;;;;5.35;4.85;;;;;;;;;;5066974;28;42667;-44
2023/06/20 14:18:38;;;;;;;5.45;4.95;;;;;;;;;;5066175;28;43324;-44
2023/06/20 14:21:06;;;;;;;4.82;4.43;;;;;;;;;;5067860;28;41010;-44
2023/06/20 14:23:34;;;;;;;5.25;4.85;;;;;;;;;;5066960;28;43145;-44
2023/06/20 14:26:03;;;;;;;5.35;4.82;;;;;;;;;;5066920;28;40736;-44
2023/06/20 14:28:31;;;;;;;5.57;5.07;;;;;;;;;;5052956;28;42476;-44
2023/06/20 14:30:59;;;;;;;5.45;4.53;;;;;;;;;;5067417;28;43272;-44
2023/06/20 14:33:27;;;;;;;5.13;4.72;;;;;;;;;;5066035;28;40064;-44
2023/06/20 14:35:55;;;;;;;5.28;4.80;;;;;;;;;;5066683;28;43255;-45
2023/06/20 14:38:23;;;;;;;4.80;4.40;;;;;;;;;;5066533;28;44404;-44
2023/06/20 14:40:51;;;;;;;4.97;4.57;;;;;;;;;;5066526;28;40395;-44
2023/06/20 14:43:20;;;;;;;4.97;4.47;;;;;;;;;;5066439;28;42471;-45
2023/06/20 14:45:48;;;;;;;4.32;3.90;;;;;;;;;;5064500;28;40009;-44
2023/06/20 14:48:16;;;;;;;4.68;4.28;;;;;;;;;;5066349;28;43403;-44
2023/06/20 14:50:44;;;;;;;4.47;4.10;;;;;;;;;;5066792;28;44460;-44
2023/06/20 14:53:15;;;;;;;4.65;4.25;;;;;;;;;;5064137;28;40950;-44